Alta, West Virginia
Current Conditions -  °F | °C
As of 6:55 PM on Friday 28 Nov 2014 (Local Time) from KLWB Reporting Station
Clear Clear  
Wind Chill: 25°   Ceiling: Unl
Heat Index: 25°   Visibility: 10mi
Dew Point: 18°   Wind: 0mph
Humidity: 73%   Direction: NA
Pressure: 30.22"   Gusts: NA
Location:  37.8345°N, 80.5736°W
Report Text: KLWB 282355Z AUTO 00000KT 10SM CLR M04/M08 A3022 RMK AO2 T10381080 11002 21043
Loading
Personal Weather Stations






























Interactive Weather Map New forecast layout! Learn more

10-Day Weather Forecast

Advertisements
Track Severe Weather on mobile